sensor_id;sensor_type;location;lat;lon;timestamp;temperature;humidity
22771;DHT22;11552;50.786;4.332;2022-07-31T00:00:18;22.00;99.90
22771;DHT22;11552;50.786;4.332;2022-07-31T00:02:44;21.90;99.90
22771;DHT22;11552;50.786;4.332;2022-07-31T00:05:10;21.80;99.90
22771;DHT22;11552;50.786;4.332;2022-07-31T00:07:36;21.90;99.90
22771;DHT22;11552;50.786;4.332;2022-07-31T00:10:03;21.70;99.90
22771;DHT22;11552;50.786;4.332;2022-07-31T00:12:29;21.70;99.90
22771;DHT22;11552;50.786;4.332;2022-07-31T00:14:55;21.70;99.90
22771;DHT22;11552;50.786;4.332;2022-07-31T00:17:20;21.60;99.90
22771;DHT22;11552;50.786;4.332;2022-07-31T00:19:46;21.50;99.90
22771;DHT22;11552;50.786;4.332;2022-07-31T00:22:11;21.40;99.90
22771;DHT22;11552;50.786;4.332;2022-07-31T00:24:38;21.30;99.90
22771;DHT22;11552;50.786;4.332;2022-07-31T00:27:03;21.20;99.90
22771;DHT22;11552;50.786;4.332;2022-07-31T00:29:29;21.10;99.90
22771;DHT22;11552;50.786;4.332;2022-07-31T00:31:55;21.20;99.90
22771;DHT22;11552;50.786;4.332;2022-07-31T00:34:21;21.00;99.90
22771;DHT22;11552;50.786;4.332;2022-07-31T00:36:47;21.10;99.90
22771;DHT22;11552;50.786;4.332;2022-07-31T00:39:14;21.20;99.90
22771;DHT22;11552;50.786;4.332;2022-07-31T00:41:44;21.20;99.90
22771;DHT22;11552;50.786;4.332;2022-07-31T00:44:11;21.30;99.90
22771;DHT22;11552;50.786;4.332;2022-07-31T00:46:37;21.40;99.90
22771;DHT22;11552;50.786;4.332;2022-07-31T00:49:03;21.10;99.90
22771;DHT22;11552;50.786;4.332;2022-07-31T00:51:29;21.00;99.90
22771;DHT22;11552;50.786;4.332;2022-07-31T00:53:55;21.00;99.90
22771;DHT22;11552;50.786;4.332;2022-07-31T00:56:20;21.00;99.90
22771;DHT22;11552;50.786;4.332;2022-07-31T00:58:46;21.00;99.90
22771;DHT22;11552;50.786;4.332;2022-07-31T01:01:12;21.00;99.90
22771;DHT22;11552;50.786;4.332;2022-07-31T01:03:38;21.10;99.90
22771;DHT22;11552;50.786;4.332;2022-07-31T01:06:05;21.00;99.90
22771;DHT22;11552;50.786;4.332;2022-07-31T01:08:30;21.00;99.90
22771;DHT22;11552;50.786;4.332;2022-07-31T01:11:18;20.80;99.90
22771;DHT22;11552;50.786;4.332;2022-07-31T01:13:55;20.70;99.90
22771;DHT22;11552;50.786;4.332;2022-07-31T01:16:25;20.60;99.90
22771;DHT22;11552;50.786;4.332;2022-07-31T01:18:52;20.70;99.90
22771;DHT22;11552;50.786;4.332;2022-07-31T01:21:31;20.70;99.90
22771;DHT22;11552;50.786;4.332;2022-07-31T01:24:20;20.90;99.90
22771;DHT22;11552;50.786;4.332;2022-07-31T01:27:22;20.90;99.90
22771;DHT22;11552;50.786;4.332;2022-07-31T01:29:52;20.60;99.90
22771;DHT22;11552;50.786;4.332;2022-07-31T01:32:26;20.50;99.90
22771;DHT22;11552;50.786;4.332;2022-07-31T01:35:20;20.50;99.90
22771;DHT22;11552;50.786;4.332;2022-07-31T01:38:02;20.40;99.90
22771;DHT22;11552;50.786;4.332;2022-07-31T01:40:33;20.30;99.90
22771;DHT22;11552;50.786;4.332;2022-07-31T01:43:10;20.30;99.90
22771;DHT22;11552;50.786;4.332;2022-07-31T01:45:39;20.30;99.90
22771;DHT22;11552;50.786;4.332;2022-07-31T01:48:07;20.20;99.90
22771;DHT22;11552;50.786;4.332;2022-07-31T01:50:36;20.10;99.90
22771;DHT22;11552;50.786;4.332;2022-07-31T01:53:03;20.20;99.90
22771;DHT22;11552;50.786;4.332;2022-07-31T01:55:30;20.10;99.90
22771;DHT22;11552;50.786;4.332;2022-07-31T01:57:56;20.10;99.90
22771;DHT22;11552;50.786;4.332;2022-07-31T02:00:22;20.10;99.90
22771;DHT22;11552;50.786;4.332;2022-07-31T02:02:50;20.20;99.90
22771;DHT22;11552;50.786;4.332;2022-07-31T02:05:17;20.40;99.90
22771;DHT22;11552;50.786;4.332;2022-07-31T02:07:44;20.20;99.90
22771;DHT22;11552;50.786;4.332;2022-07-31T02:10:13;20.30;99.90
22771;DHT22;11552;50.786;4.332;2022-07-31T02:12:40;20.30;99.90
22771;DHT22;11552;50.786;4.332;2022-07-31T02:15:09;20.20;99.90
22771;DHT22;11552;50.786;4.332;2022-07-31T02:17:36;20.10;99.90
22771;DHT22;11552;50.786;4.332;2022-07-31T02:20:04;20.00;99.90
22771;DHT22;11552;50.786;4.332;2022-07-31T02:22:32;20.00;99.90
22771;DHT22;11552;50.786;4.332;2022-07-31T02:24:59;20.00;99.90
22771;DHT22;11552;50.786;4.332;2022-07-31T02:27:26;20.10;99.90
22771;DHT22;11552;50.786;4.332;2022-07-31T02:29:54;20.00;99.90
22771;DHT22;11552;50.786;4.332;2022-07-31T02:32:22;20.10;99.90
22771;DHT22;11552;50.786;4.332;2022-07-31T02:34:50;20.10;99.90
22771;DHT22;11552;50.786;4.332;2022-07-31T02:37:17;20.10;99.90
22771;DHT22;11552;50.786;4.332;2022-07-31T02:39:43;19.90;99.90
22771;DHT22;11552;50.786;4.332;2022-07-31T02:42:10;19.90;99.90
22771;DHT22;11552;50.786;4.332;2022-07-31T02:44:37;19.90;99.90
22771;DHT22;11552;50.786;4.332;2022-07-31T02:47:05;19.90;99.90
22771;DHT22;11552;50.786;4.332;2022-07-31T02:49:31;19.90;99.90
22771;DHT22;11552;50.786;4.332;2022-07-31T02:52:00;19.90;99.90
22771;DHT22;11552;50.786;4.332;2022-07-31T02:54:26;19.80;99.90
22771;DHT22;11552;50.786;4.332;2022-07-31T02:56:52;19.90;99.90
22771;DHT22;11552;50.786;4.332;2022-07-31T02:59:18;20.00;99.90
22771;DHT22;11552;50.786;4.332;2022-07-31T03:01:44;19.90;99.90
22771;DHT22;11552;50.786;4.332;2022-07-31T03:04:10;20.00;99.90
22771;DHT22;11552;50.786;4.332;2022-07-31T03:06:35;20.00;99.90
22771;DHT22;11552;50.786;4.332;2022-07-31T03:09:01;19.90;99.90
22771;DHT22;11552;50.786;4.332;2022-07-31T03:11:27;19.90;99.90
22771;DHT22;11552;50.786;4.332;2022-07-31T03:13:53;19.70;99.90
22771;DHT22;11552;50.786;4.332;2022-07-31T03:16:21;19.80;99.90
22771;DHT22;11552;50.786;4.332;2022-07-31T03:18:48;19.70;99.90
22771;DHT22;11552;50.786;4.332;2022-07-31T03:21:14;19.70;99.90
22771;DHT22;11552;50.786;4.332;2022-07-31T03:23:40;19.70;99.90
22771;DHT22;11552;50.786;4.332;2022-07-31T03:26:07;19.80;99.90
22771;DHT22;11552;50.786;4.332;2022-07-31T03:28:33;19.70;99.90
22771;DHT22;11552;50.786;4.332;2022-07-31T03:31:00;19.70;99.90
22771;DHT22;11552;50.786;4.332;2022-07-31T03:33:26;19.70;99.90
22771;DHT22;11552;50.786;4.332;2022-07-31T03:35:52;19.60;99.90
22771;DHT22;11552;50.786;4.332;2022-07-31T03:38:18;19.70;99.90
22771;DHT22;11552;50.786;4.332;2022-07-31T03:40:46;19.80;99.90
22771;DHT22;11552;50.786;4.332;2022-07-31T03:43:12;19.70;99.90
22771;DHT22;11552;50.786;4.332;2022-07-31T03:45:38;19.60;99.90
22771;DHT22;11552;50.786;4.332;2022-07-31T03:48:04;19.70;99.90
22771;DHT22;11552;50.786;4.332;2022-07-31T03:50:34;19.70;99.90
22771;DHT22;11552;50.786;4.332;2022-07-31T03:53:00;19.70;99.90
22771;DHT22;11552;50.786;4.332;2022-07-31T03:55:26;19.90;99.90
22771;DHT22;11552;50.786;4.332;2022-07-31T03:57:52;19.80;99.90
22771;DHT22;11552;50.786;4.332;2022-07-31T04:00:18;19.90;99.90
22771;DHT22;11552;50.786;4.332;2022-07-31T04:02:47;19.80;99.90
22771;DHT22;11552;50.786;4.332;2022-07-31T04:05:12;19.80;99.90
22771;DHT22;11552;50.786;4.332;2022-07-31T04:07:38;19.90;99.90
22771;DHT22;11552;50.786;4.332;2022-07-31T04:10:04;19.90;99.90
22771;DHT22;11552;50.786;4.332;2022-07-31T04:12:30;19.90;99.90
22771;DHT22;11552;50.786;4.332;2022-07-31T04:14:55;19.80;99.90
22771;DHT22;11552;50.786;4.332;2022-07-31T04:17:21;19.60;99.90
22771;DHT22;11552;50.786;4.332;2022-07-31T04:19:47;19.50;99.90
22771;DHT22;11552;50.786;4.332;2022-07-31T04:22:14;19.50;99.90
22771;DHT22;11552;50.786;4.332;2022-07-31T04:24:40;19.40;99.90
22771;DHT22;11552;50.786;4.332;2022-07-31T04:27:05;19.50;99.90
22771;DHT22;11552;50.786;4.332;2022-07-31T04:29:31;19.50;99.90
22771;DHT22;11552;50.786;4.332;2022-07-31T04:31:57;19.50;99.90
22771;DHT22;11552;50.786;4.332;2022-07-31T04:34:22;19.50;99.90
22771;DHT22;11552;50.786;4.332;2022-07-31T04:36:48;19.40;99.90
22771;DHT22;11552;50.786;4.332;2022-07-31T04:39:14;19.50;99.90
22771;DHT22;11552;50.786;4.332;2022-07-31T04:41:39;19.60;99.90
22771;DHT22;11552;50.786;4.332;2022-07-31T04:44:05;19.70;99.90
22771;DHT22;11552;50.786;4.332;2022-07-31T04:46:31;19.70;99.90
22771;DHT22;11552;50.786;4.332;2022-07-31T04:48:56;19.70;99.90
22771;DHT22;11552;50.786;4.332;2022-07-31T04:51:23;19.70;99.90
22771;DHT22;11552;50.786;4.332;2022-07-31T04:53:49;19.70;99.90
22771;DHT22;11552;50.786;4.332;2022-07-31T04:56:16;19.70;99.90
22771;DHT22;11552;50.786;4.332;2022-07-31T04:59:12;19.80;99.90
22771;DHT22;11552;50.786;4.332;2022-07-31T05:01:39;19.90;99.90
22771;DHT22;11552;50.786;4.332;2022-07-31T05:04:05;19.90;99.90
22771;DHT22;11552;50.786;4.332;2022-07-31T05:06:56;19.80;99.90
22771;DHT22;11552;50.786;4.332;2022-07-31T05:09:22;19.80;99.90
22771;DHT22;11552;50.786;4.332;2022-07-31T05:11:49;19.80;99.90
22771;DHT22;11552;50.786;4.332;2022-07-31T05:14:16;19.90;99.90
22771;DHT22;11552;50.786;4.332;2022-07-31T05:16:42;19.90;99.90
22771;DHT22;11552;50.786;4.332;2022-07-31T05:19:08;19.90;99.90
22771;DHT22;11552;50.786;4.332;2022-07-31T05:21:34;20.00;99.90
22771;DHT22;11552;50.786;4.332;2022-07-31T05:24:00;20.00;99.90
22771;DHT22;11552;50.786;4.332;2022-07-31T05:26:28;20.00;99.90
22771;DHT22;11552;50.786;4.332;2022-07-31T05:28:56;19.90;99.90
22771;DHT22;11552;50.786;4.332;2022-07-31T05:31:22;19.90;99.90
22771;DHT22;11552;50.786;4.332;2022-07-31T05:33:48;20.00;99.90
22771;DHT22;11552;50.786;4.332;2022-07-31T05:36:15;20.20;99.90
22771;DHT22;11552;50.786;4.332;2022-07-31T05:38:41;20.30;99.90
22771;DHT22;11552;50.786;4.332;2022-07-31T05:41:07;20.10;99.90
22771;DHT22;11552;50.786;4.332;2022-07-31T05:43:33;20.10;99.90
22771;DHT22;11552;50.786;4.332;2022-07-31T05:45:59;20.20;99.90
22771;DHT22;11552;50.786;4.332;2022-07-31T05:48:24;20.30;99.90
22771;DHT22;11552;50.786;4.332;2022-07-31T05:50:51;20.20;99.90
22771;DHT22;11552;50.786;4.332;2022-07-31T05:53:17;20.30;99.90
22771;DHT22;11552;50.786;4.332;2022-07-31T05:55:44;20.50;99.90
22771;DHT22;11552;50.786;4.332;2022-07-31T05:58:12;20.40;99.90
22771;DHT22;11552;50.786;4.332;2022-07-31T06:00:39;20.60;99.90
22771;DHT22;11552;50.786;4.332;2022-07-31T06:03:04;20.60;99.90
22771;DHT22;11552;50.786;4.332;2022-07-31T06:05:30;20.60;99.90
22771;DHT22;11552;50.786;4.332;2022-07-31T06:07:57;20.80;99.90
22771;DHT22;11552;50.786;4.332;2022-07-31T06:10:23;20.90;99.90
22771;DHT22;11552;50.786;4.332;2022-07-31T06:12:49;20.80;99.90
22771;DHT22;11552;50.786;4.332;2022-07-31T06:15:15;20.80;99.90
22771;DHT22;11552;50.786;4.332;2022-07-31T06:17:41;20.80;99.90
22771;DHT22;11552;50.786;4.332;2022-07-31T06:20:08;20.70;99.90
22771;DHT22;11552;50.786;4.332;2022-07-31T06:22:35;20.90;99.90
22771;DHT22;11552;50.786;4.332;2022-07-31T06:25:01;21.00;99.90
22771;DHT22;11552;50.786;4.332;2022-07-31T06:27:27;21.00;99.90
22771;DHT22;11552;50.786;4.332;2022-07-31T06:29:53;21.00;99.90
22771;DHT22;11552;50.786;4.332;2022-07-31T06:32:18;21.20;99.90
22771;DHT22;11552;50.786;4.332;2022-07-31T06:34:44;21.50;99.90
22771;DHT22;11552;50.786;4.332;2022-07-31T06:37:10;21.90;99.90
22771;DHT22;11552;50.786;4.332;2022-07-31T06:39:36;22.10;99.90
22771;DHT22;11552;50.786;4.332;2022-07-31T06:42:01;22.00;99.90
22771;DHT22;11552;50.786;4.332;2022-07-31T06:44:28;21.90;99.90
22771;DHT22;11552;50.786;4.332;2022-07-31T06:46:53;21.60;99.90
22771;DHT22;11552;50.786;4.332;2022-07-31T06:49:19;21.70;99.90
22771;DHT22;11552;50.786;4.332;2022-07-31T06:51:46;21.80;99.90
22771;DHT22;11552;50.786;4.332;2022-07-31T06:54:11;21.90;99.90
22771;DHT22;11552;50.786;4.332;2022-07-31T06:56:38;22.30;99.90
22771;DHT22;11552;50.786;4.332;2022-07-31T06:59:05;22.30;99.90
22771;DHT22;11552;50.786;4.332;2022-07-31T07:01:31;21.90;99.90
22771;DHT22;11552;50.786;4.332;2022-07-31T07:03:56;21.70;99.90
22771;DHT22;11552;50.786;4.332;2022-07-31T07:06:22;21.60;99.90
22771;DHT22;11552;50.786;4.332;2022-07-31T07:08:48;21.80;99.90
22771;DHT22;11552;50.786;4.332;2022-07-31T07:11:14;22.00;99.90
22771;DHT22;11552;50.786;4.332;2022-07-31T07:13:40;22.40;99.90
22771;DHT22;11552;50.786;4.332;2022-07-31T07:16:06;22.60;99.90
22771;DHT22;11552;50.786;4.332;2022-07-31T07:18:32;22.80;99.90
22771;DHT22;11552;50.786;4.332;2022-07-31T07:20:57;22.80;99.90
22771;DHT22;11552;50.786;4.332;2022-07-31T07:23:23;22.90;99.90
22771;DHT22;11552;50.786;4.332;2022-07-31T07:25:49;23.20;99.90
22771;DHT22;11552;50.786;4.332;2022-07-31T07:28:16;23.20;99.90
22771;DHT22;11552;50.786;4.332;2022-07-31T07:30:42;23.30;99.90
22771;DHT22;11552;50.786;4.332;2022-07-31T07:33:08;23.10;99.90
22771;DHT22;11552;50.786;4.332;2022-07-31T07:35:33;23.20;99.90
22771;DHT22;11552;50.786;4.332;2022-07-31T07:37:59;23.20;99.90
22771;DHT22;11552;50.786;4.332;2022-07-31T07:40:25;23.00;99.90
22771;DHT22;11552;50.786;4.332;2022-07-31T07:42:51;23.00;99.90
22771;DHT22;11552;50.786;4.332;2022-07-31T07:45:17;22.80;99.90
22771;DHT22;11552;50.786;4.332;2022-07-31T07:47:43;22.80;99.90
22771;DHT22;11552;50.786;4.332;2022-07-31T07:50:10;22.60;99.90
22771;DHT22;11552;50.786;4.332;2022-07-31T07:52:37;22.70;99.90
22771;DHT22;11552;50.786;4.332;2022-07-31T07:55:04;23.70;99.90
22771;DHT22;11552;50.786;4.332;2022-07-31T07:57:30;25.70;99.90
22771;DHT22;11552;50.786;4.332;2022-07-31T08:00:00;27.90;99.90
22771;DHT22;11552;50.786;4.332;2022-07-31T08:02:26;29.10;99.90
22771;DHT22;11552;50.786;4.332;2022-07-31T08:04:51;31.40;99.90
22771;DHT22;11552;50.786;4.332;2022-07-31T08:07:29;32.40;97.00
22771;DHT22;11552;50.786;4.332;2022-07-31T08:09:57;32.60;94.00
22771;DHT22;11552;50.786;4.332;2022-07-31T08:12:23;32.90;92.70
22771;DHT22;11552;50.786;4.332;2022-07-31T08:14:48;32.20;93.20
22771;DHT22;11552;50.786;4.332;2022-07-31T08:17:14;32.10;93.50
22771;DHT22;11552;50.786;4.332;2022-07-31T08:19:40;32.40;92.70
22771;DHT22;11552;50.786;4.332;2022-07-31T08:22:06;32.50;92.60
22771;DHT22;11552;50.786;4.332;2022-07-31T08:24:32;32.70;91.40
22771;DHT22;11552;50.786;4.332;2022-07-31T08:26:58;33.50;90.40
22771;DHT22;11552;50.786;4.332;2022-07-31T08:29:42;34.10;88.10
22771;DHT22;11552;50.786;4.332;2022-07-31T08:32:10;31.90;90.80
22771;DHT22;11552;50.786;4.332;2022-07-31T08:34:35;30.50;92.90
22771;DHT22;11552;50.786;4.332;2022-07-31T08:37:02;30.20;94.50
22771;DHT22;11552;50.786;4.332;2022-07-31T08:39:28;29.50;96.30
22771;DHT22;11552;50.786;4.332;2022-07-31T08:41:54;29.50;96.30
22771;DHT22;11552;50.786;4.332;2022-07-31T08:44:20;29.30;96.60
22771;DHT22;11552;50.786;4.332;2022-07-31T08:46:46;28.90;97.80
22771;DHT22;11552;50.786;4.332;2022-07-31T08:49:14;28.40;98.80
22771;DHT22;11552;50.786;4.332;2022-07-31T08:51:42;27.60;99.90
22771;DHT22;11552;50.786;4.332;2022-07-31T08:54:09;26.70;99.90
22771;DHT22;11552;50.786;4.332;2022-07-31T08:56:36;26.40;99.90
22771;DHT22;11552;50.786;4.332;2022-07-31T08:59:03;27.30;99.90
22771;DHT22;11552;50.786;4.332;2022-07-31T09:01:31;27.70;99.90
22771;DHT22;11552;50.786;4.332;2022-07-31T09:03:57;27.30;99.90
22771;DHT22;11552;50.786;4.332;2022-07-31T09:06:24;28.60;99.90
22771;DHT22;11552;50.786;4.332;2022-07-31T09:08:49;30.70;98.50
22771;DHT22;11552;50.786;4.332;2022-07-31T09:11:15;33.20;93.00
22771;DHT22;11552;50.786;4.332;2022-07-31T09:13:58;32.40;91.30
22771;DHT22;11552;50.786;4.332;2022-07-31T09:16:25;32.60;91.50
22771;DHT22;11552;50.786;4.332;2022-07-31T09:19:02;31.60;91.80
22771;DHT22;11552;50.786;4.332;2022-07-31T09:21:43;31.70;92.50
22771;DHT22;11552;50.786;4.332;2022-07-31T09:24:23;31.80;92.00
22771;DHT22;11552;50.786;4.332;2022-07-31T09:26:56;30.80;92.90
22771;DHT22;11552;50.786;4.332;2022-07-31T09:29:40;31.80;92.00
22771;DHT22;11552;50.786;4.332;2022-07-31T09:32:13;32.80;89.90
22771;DHT22;11552;50.786;4.332;2022-07-31T09:34:41;33.20;88.30
22771;DHT22;11552;50.786;4.332;2022-07-31T09:37:23;33.10;86.90
22771;DHT22;11552;50.786;4.332;2022-07-31T09:39:54;32.50;88.80
22771;DHT22;11552;50.786;4.332;2022-07-31T09:42:21;32.50;89.70
22771;DHT22;11552;50.786;4.332;2022-07-31T09:44:48;32.80;86.80
22771;DHT22;11552;50.786;4.332;2022-07-31T09:47:27;31.40;90.30
22771;DHT22;11552;50.786;4.332;2022-07-31T09:49:56;31.10;91.40
22771;DHT22;11552;50.786;4.332;2022-07-31T09:52:23;30.60;92.20
22771;DHT22;11552;50.786;4.332;2022-07-31T09:55:10;30.20;92.70
22771;DHT22;11552;50.786;4.332;2022-07-31T09:57:37;30.10;93.20
22771;DHT22;11552;50.786;4.332;2022-07-31T10:00:08;30.40;92.70
22771;DHT22;11552;50.786;4.332;2022-07-31T10:02:35;31.50;91.60
22771;DHT22;11552;50.786;4.332;2022-07-31T10:05:03;32.30;90.10
22771;DHT22;11552;50.786;4.332;2022-07-31T10:07:29;32.00;90.20
22771;DHT22;11552;50.786;4.332;2022-07-31T10:10:00;32.70;88.60
22771;DHT22;11552;50.786;4.332;2022-07-31T10:12:28;33.80;84.70
22771;DHT22;11552;50.786;4.332;2022-07-31T10:14:58;34.00;83.10
22771;DHT22;11552;50.786;4.332;2022-07-31T10:17:28;34.00;82.50
22771;DHT22;11552;50.786;4.332;2022-07-31T10:20:00;33.40;82.90
22771;DHT22;11552;50.786;4.332;2022-07-31T10:22:40;33.00;83.20
22771;DHT22;11552;50.786;4.332;2022-07-31T10:25:08;32.70;85.10
22771;DHT22;11552;50.786;4.332;2022-07-31T10:27:38;31.50;88.00
22771;DHT22;11552;50.786;4.332;2022-07-31T10:30:06;30.50;91.10
22771;DHT22;11552;50.786;4.332;2022-07-31T10:32:32;30.30;91.70
22771;DHT22;11552;50.786;4.332;2022-07-31T10:34:58;29.50;92.80
22771;DHT22;11552;50.786;4.332;2022-07-31T10:37:33;29.10;94.10
22771;DHT22;11552;50.786;4.332;2022-07-31T10:43:27;28.30;96.10
22771;DHT22;11552;50.786;4.332;2022-07-31T10:45:54;27.60;98.20
22771;DHT22;11552;50.786;4.332;2022-07-31T10:48:21;27.50;99.20
22771;DHT22;11552;50.786;4.332;2022-07-31T10:50:48;27.30;99.90
22771;DHT22;11552;50.786;4.332;2022-07-31T10:53:24;27.40;99.90
22771;DHT22;11552;50.786;4.332;2022-07-31T10:56:05;27.50;99.90
22771;DHT22;11552;50.786;4.332;2022-07-31T10:58:49;27.60;99.90
22771;DHT22;11552;50.786;4.332;2022-07-31T11:01:15;27.30;99.90
22771;DHT22;11552;50.786;4.332;2022-07-31T11:03:43;27.10;99.90
22771;DHT22;11552;50.786;4.332;2022-07-31T11:06:12;27.00;99.90
22771;DHT22;11552;50.786;4.332;2022-07-31T11:08:45;27.30;99.90
22771;DHT22;11552;50.786;4.332;2022-07-31T11:11:11;27.50;99.90
22771;DHT22;11552;50.786;4.332;2022-07-31T11:13:50;27.40;99.90
22771;DHT22;11552;50.786;4.332;2022-07-31T11:16:17;27.40;99.90
22771;DHT22;11552;50.786;4.332;2022-07-31T11:18:43;27.60;99.90
22771;DHT22;11552;50.786;4.332;2022-07-31T11:21:12;27.10;99.90
22771;DHT22;11552;50.786;4.332;2022-07-31T11:23:37;27.10;99.90
22771;DHT22;11552;50.786;4.332;2022-07-31T11:26:06;26.90;99.90
22771;DHT22;11552;50.786;4.332;2022-07-31T11:28:33;26.80;99.90
22771;DHT22;11552;50.786;4.332;2022-07-31T11:31:06;27.00;99.90
22771;DHT22;11552;50.786;4.332;2022-07-31T11:33:43;27.20;99.90
22771;DHT22;11552;50.786;4.332;2022-07-31T11:36:19;27.50;99.90
22771;DHT22;11552;50.786;4.332;2022-07-31T11:38:47;27.50;99.90
22771;DHT22;11552;50.786;4.332;2022-07-31T11:41:17;27.30;99.90
22771;DHT22;11552;50.786;4.332;2022-07-31T11:43:45;27.10;99.90
22771;DHT22;11552;50.786;4.332;2022-07-31T11:46:12;27.00;99.90
22771;DHT22;11552;50.786;4.332;2022-07-31T11:48:40;26.90;99.90
22771;DHT22;11552;50.786;4.332;2022-07-31T11:51:06;27.00;99.90
22771;DHT22;11552;50.786;4.332;2022-07-31T11:53:39;27.00;99.90
22771;DHT22;11552;50.786;4.332;2022-07-31T11:56:06;27.20;99.90
22771;DHT22;11552;50.786;4.332;2022-07-31T11:58:32;27.20;99.90
22771;DHT22;11552;50.786;4.332;2022-07-31T12:01:03;27.30;99.90
22771;DHT22;11552;50.786;4.332;2022-07-31T12:03:31;27.30;99.90
22771;DHT22;11552;50.786;4.332;2022-07-31T12:05:58;27.40;99.90
22771;DHT22;11552;50.786;4.332;2022-07-31T12:08:24;27.40;99.90
22771;DHT22;11552;50.786;4.332;2022-07-31T12:10:53;27.40;99.90
22771;DHT22;11552;50.786;4.332;2022-07-31T12:13:20;27.50;99.90
22771;DHT22;11552;50.786;4.332;2022-07-31T12:16:13;27.70;99.90
22771;DHT22;11552;50.786;4.332;2022-07-31T12:18:49;27.90;99.90
22771;DHT22;11552;50.786;4.332;2022-07-31T12:21:16;27.90;99.90
22771;DHT22;11552;50.786;4.332;2022-07-31T12:23:48;27.80;99.90
22771;DHT22;11552;50.786;4.332;2022-07-31T12:31:22;27.60;99.90
22771;DHT22;11552;50.786;4.332;2022-07-31T12:33:48;27.20;99.90
22771;DHT22;11552;50.786;4.332;2022-07-31T12:36:15;27.00;99.90
22771;DHT22;11552;50.786;4.332;2022-07-31T12:38:42;26.90;99.90
22771;DHT22;11552;50.786;4.332;2022-07-31T12:41:08;27.20;99.90
22771;DHT22;11552;50.786;4.332;2022-07-31T12:43:34;27.30;99.90
22771;DHT22;11552;50.786;4.332;2022-07-31T12:46:00;27.10;99.90
22771;DHT22;11552;50.786;4.332;2022-07-31T12:48:30;27.10;99.90
22771;DHT22;11552;50.786;4.332;2022-07-31T12:50:57;27.50;99.90
22771;DHT22;11552;50.786;4.332;2022-07-31T12:53:23;27.60;99.90
22771;DHT22;11552;50.786;4.332;2022-07-31T12:55:48;28.20;99.90
22771;DHT22;11552;50.786;4.332;2022-07-31T12:58:14;27.80;99.90
22771;DHT22;11552;50.786;4.332;2022-07-31T13:00:40;27.70;99.90
22771;DHT22;11552;50.786;4.332;2022-07-31T13:03:05;27.50;99.90
22771;DHT22;11552;50.786;4.332;2022-07-31T13:05:31;27.20;99.90
22771;DHT22;11552;50.786;4.332;2022-07-31T13:07:57;27.10;99.90
22771;DHT22;11552;50.786;4.332;2022-07-31T13:10:22;27.30;99.90
22771;DHT22;11552;50.786;4.332;2022-07-31T13:12:49;26.90;99.90
22771;DHT22;11552;50.786;4.332;2022-07-31T13:15:19;26.70;99.90
22771;DHT22;11552;50.786;4.332;2022-07-31T13:17:46;27.20;99.90
22771;DHT22;11552;50.786;4.332;2022-07-31T13:20:12;27.60;99.90
22771;DHT22;11552;50.786;4.332;2022-07-31T13:22:39;27.60;99.90
22771;DHT22;11552;50.786;4.332;2022-07-31T13:25:05;28.00;99.90
22771;DHT22;11552;50.786;4.332;2022-07-31T13:27:31;28.10;99.90
22771;DHT22;11552;50.786;4.332;2022-07-31T13:29:56;27.90;99.90
22771;DHT22;11552;50.786;4.332;2022-07-31T13:32:23;27.50;99.90
22771;DHT22;11552;50.786;4.332;2022-07-31T13:34:49;27.70;99.90
22771;DHT22;11552;50.786;4.332;2022-07-31T13:37:16;27.70;99.90
22771;DHT22;11552;50.786;4.332;2022-07-31T13:39:41;27.70;99.90
22771;DHT22;11552;50.786;4.332;2022-07-31T13:42:07;27.80;99.90
22771;DHT22;11552;50.786;4.332;2022-07-31T13:44:33;27.70;99.90
22771;DHT22;11552;50.786;4.332;2022-07-31T13:46:58;27.80;99.90
22771;DHT22;11552;50.786;4.332;2022-07-31T13:49:24;27.60;99.90
22771;DHT22;11552;50.786;4.332;2022-07-31T13:51:59;27.20;99.90
22771;DHT22;11552;50.786;4.332;2022-07-31T13:54:26;27.20;99.90
22771;DHT22;11552;50.786;4.332;2022-07-31T13:56:53;27.30;99.90
22771;DHT22;11552;50.786;4.332;2022-07-31T13:59:19;27.40;99.90
22771;DHT22;11552;50.786;4.332;2022-07-31T14:01:45;27.60;99.90
22771;DHT22;11552;50.786;4.332;2022-07-31T14:04:15;27.60;99.90
22771;DHT22;11552;50.786;4.332;2022-07-31T14:06:41;27.50;99.90
22771;DHT22;11552;50.786;4.332;2022-07-31T14:09:07;27.40;99.90
22771;DHT22;11552;50.786;4.332;2022-07-31T14:11:32;27.10;99.90
22771;DHT22;11552;50.786;4.332;2022-07-31T14:13:58;26.80;99.90
22771;DHT22;11552;50.786;4.332;2022-07-31T14:16:24;26.80;99.90
22771;DHT22;11552;50.786;4.332;2022-07-31T14:18:49;26.70;99.90
22771;DHT22;11552;50.786;4.332;2022-07-31T14:21:15;26.70;99.90
22771;DHT22;11552;50.786;4.332;2022-07-31T14:23:40;26.60;99.90
22771;DHT22;11552;50.786;4.332;2022-07-31T14:26:06;26.90;99.90
22771;DHT22;11552;50.786;4.332;2022-07-31T14:28:32;27.10;99.90
22771;DHT22;11552;50.786;4.332;2022-07-31T14:30:57;27.40;99.90
22771;DHT22;11552;50.786;4.332;2022-07-31T14:33:23;27.80;99.90
22771;DHT22;11552;50.786;4.332;2022-07-31T14:35:49;27.70;99.90
22771;DHT22;11552;50.786;4.332;2022-07-31T14:38:15;27.20;99.90
22771;DHT22;11552;50.786;4.332;2022-07-31T14:40:40;27.00;99.90
22771;DHT22;11552;50.786;4.332;2022-07-31T14:43:06;27.20;99.90
22771;DHT22;11552;50.786;4.332;2022-07-31T14:45:35;27.40;99.90
22771;DHT22;11552;50.786;4.332;2022-07-31T14:48:01;27.30;99.90
22771;DHT22;11552;50.786;4.332;2022-07-31T14:50:27;27.20;99.90
22771;DHT22;11552;50.786;4.332;2022-07-31T14:52:52;27.20;99.90
22771;DHT22;11552;50.786;4.332;2022-07-31T14:55:19;27.20;99.90
22771;DHT22;11552;50.786;4.332;2022-07-31T14:57:45;27.20;99.90
22771;DHT22;11552;50.786;4.332;2022-07-31T15:00:11;26.80;99.90
22771;DHT22;11552;50.786;4.332;2022-07-31T15:02:38;26.80;99.90
22771;DHT22;11552;50.786;4.332;2022-07-31T15:05:05;26.70;99.90
22771;DHT22;11552;50.786;4.332;2022-07-31T15:07:31;26.90;99.90
22771;DHT22;11552;50.786;4.332;2022-07-31T15:09:56;26.90;99.90
22771;DHT22;11552;50.786;4.332;2022-07-31T15:12:22;26.50;99.90
22771;DHT22;11552;50.786;4.332;2022-07-31T15:14:48;26.40;99.90
22771;DHT22;11552;50.786;4.332;2022-07-31T15:17:13;26.30;99.90
22771;DHT22;11552;50.786;4.332;2022-07-31T15:19:39;26.40;99.90
22771;DHT22;11552;50.786;4.332;2022-07-31T15:22:05;26.50;99.90
22771;DHT22;11552;50.786;4.332;2022-07-31T15:24:30;26.50;99.90
22771;DHT22;11552;50.786;4.332;2022-07-31T15:26:57;26.50;99.90
22771;DHT22;11552;50.786;4.332;2022-07-31T15:29:22;26.30;99.90
22771;DHT22;11552;50.786;4.332;2022-07-31T15:31:48;26.20;99.90
22771;DHT22;11552;50.786;4.332;2022-07-31T15:34:14;26.50;99.90
22771;DHT22;11552;50.786;4.332;2022-07-31T15:36:39;26.50;99.90
22771;DHT22;11552;50.786;4.332;2022-07-31T15:39:05;26.30;99.90
22771;DHT22;11552;50.786;4.332;2022-07-31T15:41:30;26.20;99.90